Time;durP1;ratioP1;P1;durP2;ratioP2;P2;SDS_P1;SDS_P2;PMS_P1;PMS_P2;Temp;Humidity;BMP_temperature;BMP_pressure;BME280_temperature;BME280_humidity;BME280_pressure;Samples;Min_cycle;Max_cycle;Signal;HPM_P1;HPM_P2
2022/05/23 00:00:41;;;;;;;3.90;3.60;;;11.20;99.90;;;;;;5016502;28;20025;-89
2022/05/23 00:03:07;;;;;;;3.80;3.50;;;11.10;99.90;;;;;;5016784;28;20026;-90
2022/05/23 00:05:33;;;;;;;4.22;3.65;;;11.10;99.90;;;;;;5016533;28;20025;-90
2022/05/23 00:07:59;;;;;;;3.50;3.22;;;11.20;99.90;;;;;;5016221;28;20053;-90
2022/05/23 00:10:25;;;;;;;4.20;3.58;;;11.20;99.90;;;;;;5016682;28;20148;-90
2022/05/23 00:12:51;;;;;;;3.70;3.38;;;11.20;99.90;;;;;;5016830;28;20021;-89
2022/05/23 00:15:17;;;;;;;3.65;3.35;;;11.20;99.90;;;;;;5016375;28;20029;-88
2022/05/23 00:17:44;;;;;;;4.50;3.53;;;11.10;99.90;;;;;;5018764;28;20042;-88
2022/05/23 00:20:11;;;;;;;4.30;3.72;;;11.10;99.90;;;;;;5019938;28;20084;-87
2022/05/23 00:22:38;;;;;;;4.13;3.30;;;11.10;99.90;;;;;;5019836;28;20117;-87
2022/05/23 00:25:05;;;;;;;4.70;3.50;;;11.10;99.90;;;;;;5037998;28;20109;-87
2022/05/23 00:27:31;;;;;;;4.90;3.58;;;11.10;99.90;;;;;;5019621;28;20032;-88
2022/05/23 00:29:56;;;;;;;3.40;3.10;;;11.00;99.90;;;;;;5020644;28;20193;-86
2022/05/23 00:35:19;;;;;;;3.80;3.50;;;11.00;99.90;;;;;;5037792;28;20024;-88
2022/05/23 00:37:47;;;;;;;4.10;3.33;;;11.00;99.90;;;;;;5037587;28;20026;-87
2022/05/23 00:40:31;;;;;;;3.70;3.33;;;11.00;99.90;;;;;;5019664;28;20080;-85
2022/05/23 00:43:14;;;;;;;4.32;3.22;;;11.00;99.90;;;;;;5019634;28;20431;-87
2022/05/23 00:46:04;;;;;;;4.88;3.20;;;11.00;99.90;;;;;;5037285;28;20383;-87
2022/05/23 00:48:30;;;;;;;;;;;11.00;99.90;;;;;;5017579;28;20041;-88
2022/05/23 00:51:03;;;;;;;4.50;3.80;;;11.00;99.90;;;;;;5019237;28;19916;-87
2022/05/23 00:53:34;;;;;;;3.38;3.08;;;11.00;99.90;;;;;;5020195;28;20440;-88
2022/05/23 00:56:00;;;;;;;3.47;3.17;;;11.00;99.90;;;;;;5019229;28;20021;-88
2022/05/23 00:58:32;;;;;;;4.07;3.20;;;11.00;99.90;;;;;;5019361;28;20053;-87
2022/05/23 01:01:01;;;;;;;5.95;3.42;;;11.00;99.90;;;;;;5019374;28;20040;-87
2022/05/23 01:03:27;;;;;;;3.85;3.38;;;11.00;99.90;;;;;;5019137;28;20037;-88
2022/05/23 01:05:54;;;;;;;5.45;3.53;;;11.00;99.90;;;;;;5036983;28;20029;-87
2022/05/23 01:08:21;;;;;;;3.60;3.30;;;10.90;99.90;;;;;;5019436;28;20025;-88
2022/05/23 01:10:47;;;;;;;3.80;3.50;;;11.00;99.90;;;;;;5018951;28;20116;-88
2022/05/23 01:13:16;;;;;;;4.47;3.58;;;11.00;99.90;;;;;;5019999;28;20059;-88
2022/05/23 01:15:48;;;;;;;5.20;3.53;;;11.00;99.90;;;;;;5019139;28;20025;-88
2022/05/23 01:18:14;;;;;;;3.85;3.55;;;11.00;99.90;;;;;;5018692;28;20472;-89
2022/05/23 01:20:40;;;;;;;3.85;3.45;;;10.90;99.90;;;;;;5018950;28;20124;-87
2022/05/23 01:23:37;;;;;;;6.65;3.47;;;10.90;99.90;;;;;;5018898;28;20045;-88
2022/05/23 01:26:04;;;;;;;4.85;3.75;;;10.90;99.90;;;;;;5018803;28;20030;-87
2022/05/23 01:28:38;;;;;;;5.28;3.50;;;10.90;99.90;;;;;;5018597;28;20037;-87
2022/05/23 01:31:09;;;;;;;4.00;3.60;;;10.90;99.90;;;;;;5018744;28;20032;-87
2022/05/23 01:33:35;;;;;;;4.53;3.50;;;11.00;99.90;;;;;;5018584;28;20021;-86
2022/05/23 01:36:01;;;;;;;3.70;3.40;;;11.00;99.90;;;;;;5018506;28;20048;-87
2022/05/23 01:38:27;;;;;;;4.75;3.78;;;11.00;99.90;;;;;;5018609;28;20469;-88
2022/05/23 01:40:55;;;;;;;4.32;3.92;;;11.00;99.90;;;;;;5018570;28;20040;-87
2022/05/23 01:43:21;;;;;;;3.70;3.40;;;11.00;99.90;;;;;;5018447;28;20075;-88
2022/05/23 01:45:46;;;;;;;3.75;3.45;;;11.00;99.90;;;;;;5018577;28;20029;-88
2022/05/23 01:48:12;;;;;;;3.47;3.10;;;11.00;99.90;;;;;;5018436;28;20025;-87
2022/05/23 01:50:38;;;;;;;4.00;3.60;;;11.00;99.90;;;;;;5018205;28;20140;-88
2022/05/23 01:53:04;;;;;;;4.50;4.00;;;10.90;99.90;;;;;;5018368;28;20072;-87
2022/05/23 01:55:30;;;;;;;4.82;3.78;;;10.90;99.90;;;;;;5036135;28;20025;-88
2022/05/23 01:57:56;;;;;;;4.72;4.20;;;10.90;99.90;;;;;;5018455;28;20017;-88
2022/05/23 02:03:06;;;;;;;6.72;4.05;;;10.90;99.90;;;;;;5036135;28;20112;-87
2022/05/23 02:05:33;;;;;;;4.00;3.60;;;10.90;99.90;;;;;;5018008;28;20057;-88
2022/05/23 02:07:59;;;;;;;4.57;3.65;;;10.90;99.90;;;;;;5018855;28;20124;-88
2022/05/23 02:10:25;;;;;;;5.13;4.13;;;10.90;99.90;;;;;;5017753;28;20473;-87
2022/05/23 02:12:51;;;;;;;5.53;4.25;;;10.90;99.90;;;;;;5017935;28;20029;-87
2022/05/23 02:15:18;;;;;;;4.47;4.00;;;10.90;99.90;;;;;;5018366;28;20104;-87
2022/05/23 02:17:44;;;;;;;6.32;3.90;;;10.90;99.90;;;;;;5017546;28;20049;-88
2022/05/23 02:20:10;;;;;;;4.72;4.20;;;10.90;99.90;;;;;;5018730;28;20078;-88
2022/05/23 02:22:37;;;;;;;4.88;3.97;;;10.90;99.90;;;;;;5017843;28;20040;-87
2022/05/23 02:25:04;;;;;;;4.95;3.75;;;11.00;99.90;;;;;;5017826;28;20033;-87
2022/05/23 02:27:30;;;;;;;4.25;3.90;;;10.90;99.90;;;;;;5018369;28;20055;-87
2022/05/23 02:29:57;;;;;;;4.00;3.65;;;10.90;99.90;;;;;;5017655;28;20029;-87
2022/05/23 02:32:23;;;;;;;4.03;3.63;;;10.90;99.90;;;;;;5017389;28;20048;-87
2022/05/23 02:34:48;;;;;;;4.25;3.85;;;11.00;99.90;;;;;;5018204;28;20064;-88
2022/05/23 02:37:14;;;;;;;4.53;4.13;;;11.00;99.90;;;;;;5017604;28;20121;-87
2022/05/23 02:39:40;;;;;;;3.97;3.67;;;11.00;99.90;;;;;;5017028;28;20025;-88
2022/05/23 02:42:07;;;;;;;4.70;3.97;;;11.00;99.90;;;;;;5017382;28;20040;-87
2022/05/23 02:44:34;;;;;;;4.88;4.20;;;11.00;99.90;;;;;;5017442;28;20029;-87
2022/05/23 02:46:59;;;;;;;4.10;3.70;;;11.00;99.90;;;;;;5017405;28;20112;-88
2022/05/23 02:49:25;;;;;;;6.75;4.47;;;11.00;99.90;;;;;;5017048;28;20107;-88
2022/05/23 02:51:51;;;;;;;5.50;4.10;;;11.00;99.90;;;;;;5035109;28;20025;-88
2022/05/23 02:54:17;;;;;;;5.35;4.30;;;11.00;99.90;;;;;;5017683;28;20030;-87
2022/05/23 02:56:42;;;;;;;4.68;4.28;;;10.90;99.90;;;;;;5017269;28;20025;-87
2022/05/23 02:59:08;;;;;;;4.78;4.32;;;10.90;99.90;;;;;;5017141;28;20029;-88
2022/05/23 03:03:01;;;;;;;5.45;4.60;;;10.90;99.90;;;;;;5017095;28;20064;-88
2022/05/23 03:04:19;;;;;;;7.25;4.60;;;10.90;99.90;;;;;;5034444;28;20496;-87
2022/05/23 03:06:45;;;;;;;5.03;4.28;;;10.90;99.90;;;;;;5017119;28;20025;-87
2022/05/23 03:09:11;;;;;;;4.70;4.30;;;11.00;99.90;;;;;;5017158;28;20365;-87
2022/05/23 03:11:37;;;;;;;4.68;4.25;;;11.00;99.90;;;;;;5016940;28;20021;-88
2022/05/23 03:14:03;;;;;;;5.15;4.65;;;11.00;99.90;;;;;;5016749;28;20024;-88
2022/05/23 03:16:28;;;;;;;5.10;4.35;;;10.90;99.90;;;;;;5017324;28;20067;-87
2022/05/23 03:18:54;;;;;;;4.85;4.28;;;10.90;99.90;;;;;;5017130;28;20124;-87
2022/05/23 03:27:00;;;;;;;5.88;4.18;;;11.00;99.90;;;;;;5034980;28;20037;-88
2022/05/23 03:29:27;;;;;;;5.72;4.45;;;11.00;99.90;;;;;;5017653;28;20022;-87
2022/05/23 03:31:52;;;;;;;6.13;4.88;;;11.00;99.90;;;;;;5016532;28;20026;-87
2022/05/23 03:34:18;;;;;;;5.68;4.95;;;11.10;99.90;;;;;;5016819;28;20029;-87
2022/05/23 03:36:44;;;;;;;5.57;4.50;;;10.90;99.90;;;;;;5016806;28;20175;-88
2022/05/23 03:39:09;;;;;;;5.45;4.57;;;11.00;99.90;;;;;;5016699;28;20022;-87
2022/05/23 03:41:35;;;;;;;5.30;4.80;;;11.00;99.90;;;;;;5017291;28;20025;-88
2022/05/23 03:44:01;;;;;;;5.20;4.63;;;11.10;99.90;;;;;;5034526;28;20575;-88
2022/05/23 03:46:28;;;;;;;5.70;4.55;;;11.00;99.90;;;;;;5016753;28;20492;-87
2022/05/23 03:48:54;;;;;;;4.47;4.07;;;11.10;99.90;;;;;;5016840;28;20036;-87
2022/05/23 03:51:20;;;;;;;4.88;4.40;;;11.20;99.90;;;;;;5017215;28;20112;-88
2022/05/23 03:53:46;;;;;;;6.90;4.45;;;11.10;99.90;;;;;;5038118;28;20033;-87
2022/05/23 03:56:12;;;;;;;5.95;4.38;;;11.10;99.90;;;;;;5021299;28;20036;-87
2022/05/23 03:58:38;;;;;;;5.30;4.72;;;11.10;99.90;;;;;;5021110;28;20448;-87
2022/05/23 04:01:10;;;;;;;5.80;4.57;;;11.10;99.90;;;;;;5020291;28;20025;-88
2022/05/23 04:03:36;;;;;;;4.97;4.40;;;11.10;99.90;;;;;;5020448;28;20491;-87
2022/05/23 04:06:02;;;;;;;4.75;4.28;;;11.20;99.90;;;;;;5037783;28;20026;-88
2022/05/23 04:08:28;;;;;;;6.30;4.53;;;11.20;99.90;;;;;;5020309;28;20075;-87
2022/05/23 04:10:54;;;;;;;4.82;4.28;;;11.20;99.90;;;;;;5019945;28;20033;-88
2022/05/23 04:13:20;;;;;;;7.80;4.90;;;11.30;99.90;;;;;;5020121;28;20017;-88
2022/05/23 04:15:46;;;;;;;6.53;4.43;;;11.30;99.90;;;;;;5038029;28;20030;-87
2022/05/23 04:18:11;;;;;;;5.60;4.68;;;11.30;99.90;;;;;;5020091;28;20041;-88
2022/05/23 04:20:37;;;;;;;5.47;4.53;;;11.40;99.90;;;;;;5037604;28;20025;-88
2022/05/23 04:23:08;;;;;;;6.28;4.03;;;11.50;99.90;;;;;;5020359;28;20033;-88
2022/05/23 04:25:37;;;;;;;4.70;4.30;;;11.60;99.90;;;;;;5019994;28;20495;-87
2022/05/23 04:28:03;;;;;;;5.90;4.40;;;11.60;99.90;;;;;;5019958;28;20097;-87
2022/05/23 04:30:29;;;;;;;6.57;4.30;;;11.70;99.90;;;;;;5020021;28;20112;-88
2022/05/23 04:35:38;;;;;;;4.97;4.40;;;11.80;99.90;;;;;;5037806;28;20037;-87
2022/05/23 04:38:04;;;;;;;5.95;3.88;;;11.70;99.90;;;;;;5019691;28;20022;-87
2022/05/23 04:40:30;;;;;;;5.00;4.50;;;11.80;99.90;;;;;;5019405;28;20040;-87
2022/05/23 04:42:56;;;;;;;3.92;3.58;;;11.80;99.90;;;;;;5019489;28;20072;-87
2022/05/23 04:45:22;;;;;;;5.05;3.65;;;11.90;99.90;;;;;;5036726;28;20033;-88
2022/05/23 04:50:33;;;;;;;4.78;4.18;;;11.80;99.90;;;;;;5037433;28;20059;-87
2022/05/23 04:53:01;;;;;;;4.15;3.75;;;11.70;99.90;;;;;;5019102;28;20099;-87
2022/05/23 04:55:27;;;;;;;4.90;4.28;;;11.80;99.90;;;;;;5019483;28;20044;-87
2022/05/23 04:57:58;;;;;;;5.53;4.65;;;11.80;99.90;;;;;;5019542;28;20464;-88
2022/05/23 05:00:24;;;;;;;4.50;4.10;;;11.70;99.90;;;;;;5019434;28;20037;-87
2022/05/23 05:02:51;;;;;;;4.60;4.10;;;11.70;99.90;;;;;;5018566;28;20541;-88
2022/05/23 05:05:18;;;;;;;4.50;3.95;;;11.80;99.90;;;;;;5019246;28;20029;-87
2022/05/23 05:07:44;;;;;;;4.65;4.20;;;11.80;99.90;;;;;;5019065;28;20025;-87
2022/05/23 05:10:10;;;;;;;4.32;3.92;;;11.80;99.90;;;;;;5019248;28;20033;-87
2022/05/23 05:12:36;;;;;;;5.03;3.80;;;12.00;99.90;;;;;;5018945;28;20045;-87
2022/05/23 05:15:02;;;;;;;6.65;3.85;;;12.00;99.90;;;;;;5019056;28;20468;-88
2022/05/23 05:17:28;;;;;;;3.78;3.40;;;12.00;99.90;;;;;;5018534;28;20451;-87
2022/05/23 05:19:54;;;;;;;5.85;3.70;;;12.10;99.90;;;;;;5018619;28;20116;-88
2022/05/23 05:22:20;;;;;;;3.80;3.50;;;12.20;99.90;;;;;;5018855;28;20047;-88
2022/05/23 05:24:46;;;;;;;4.50;3.65;;;12.40;99.90;;;;;;5018668;28;20117;-88
2022/05/23 05:27:12;;;;;;;3.40;3.10;;;12.40;99.90;;;;;;5019017;28;20083;-87
2022/05/23 05:29:38;;;;;;;6.20;3.15;;;12.50;99.90;;;;;;5018962;28;20030;-87
2022/05/23 05:32:10;;;;;;;3.67;3.20;;;12.40;99.90;;;;;;5018559;28;20033;-87
2022/05/23 05:34:42;;;;;;;3.80;3.50;;;12.60;99.90;;;;;;5035315;28;20021;-88
2022/05/23 05:37:15;;;;;;;4.80;3.35;;;12.60;99.90;;;;;;5019289;28;20032;-87
2022/05/23 05:39:43;;;;;;;5.30;3.20;;;12.80;99.90;;;;;;5018523;28;20021;-88
2022/05/23 05:42:32;;;;;;;3.75;3.40;;;12.90;99.90;;;;;;5019101;28;20028;-87
2022/05/23 05:45:06;;;;;;;5.22;3.13;;;12.90;99.90;;;;;;5018170;28;20388;-88
2022/05/23 05:47:35;;;;;;;3.75;3.00;;;13.00;99.90;;;;;;5017970;28;20021;-87
2022/05/23 05:50:07;;;;;;;3.33;3.03;;;13.10;99.90;;;;;;5017700;28;20116;-88
2022/05/23 05:52:34;;;;;;;4.15;3.28;;;13.20;99.90;;;;;;5019808;28;20040;-87
2022/05/23 05:55:05;;;;;;;5.47;3.20;;;13.30;99.90;;;;;;5021403;28;20025;-87
2022/05/23 05:57:31;;;;;;;3.60;3.30;;;13.30;99.90;;;;;;5018061;28;20055;-87
2022/05/23 05:59:59;;;;;;;3.65;3.30;;;13.40;99.90;;;;;;5019384;28;20498;-87
2022/05/23 06:02:25;;;;;;;3.60;3.25;;;13.50;99.90;;;;;;5019829;28;20076;-87
2022/05/23 06:04:51;;;;;;;4.30;3.40;;;13.60;99.90;;;;;;5015430;28;20025;-87
2022/05/23 16:15:28;;;;;;;6.05;3.72;;;16.50;71.90;;;;;;5112653;27;20855;-95
2022/05/23 16:17:57;;;;;;;11.95;4.30;;;16.40;72.60;;;;;;5128333;28;20051;-94
2022/05/23 16:20:24;;;;;;;4.45;3.60;;;16.50;73.10;;;;;;5128637;28;20027;-95
2022/05/23 16:22:51;;;;;;;6.00;3.58;;;16.60;73.60;;;;;;5128361;28;20034;-95
2022/05/23 16:25:17;;;;;;;5.22;3.47;;;16.70;73.30;;;;;;5128104;28;20019;-96
2022/05/23 16:27:44;;;;;;;5.10;3.55;;;16.70;73.80;;;;;;5127975;28;20106;-94
2022/05/23 16:30:12;;;;;;;4.15;3.25;;;16.80;73.20;;;;;;5128001;28;20028;-95
2022/05/23 16:38:06;;;;;;;5.35;4.03;;;16.90;73.00;;;;;;5112138;28;20073;-94
2022/05/23 16:40:31;;;;;;;4.80;3.80;;;17.00;73.00;;;;;;5127902;28;20020;-94
2022/05/23 16:42:57;;;;;;;5.03;3.50;;;16.90;72.50;;;;;;5127961;28;20016;-94
2022/05/23 16:45:23;;;;;;;5.47;3.30;;;16.90;72.80;;;;;;5127756;28;20092;-94
2022/05/23 16:47:48;;;;;;;4.53;3.50;;;17.00;73.80;;;;;;5127628;28;20028;-94
2022/05/23 16:50:15;;;;;;;4.68;3.65;;;17.00;73.10;;;;;;5128273;28;20028;-94
2022/05/23 16:52:41;;;;;;;9.02;3.30;;;17.00;73.40;;;;;;5127858;28;20386;-95
2022/05/23 16:55:08;;;;;;;5.32;3.40;;;17.00;73.20;;;;;;5127707;28;20506;-94
2022/05/23 16:57:34;;;;;;;4.40;2.95;;;17.00;73.10;;;;;;5127790;28;20031;-94
2022/05/23 16:59:59;;;;;;;4.13;3.35;;;17.00;73.80;;;;;;5127907;28;20020;-94
2022/05/23 17:02:25;;;;;;;4.50;3.22;;;16.90;74.60;;;;;;5127973;28;20020;-95
2022/05/23 17:04:51;;;;;;;5.20;3.38;;;16.80;75.40;;;;;;5127553;28;20031;-95
2022/05/23 17:07:17;;;;;;;4.20;3.30;;;16.80;76.30;;;;;;5127568;28;20027;-95
2022/05/23 17:09:43;;;;;;;4.57;3.10;;;16.70;76.60;;;;;;5127334;28;20031;-95
2022/05/23 17:12:09;;;;;;;5.20;3.38;;;16.50;77.10;;;;;;5127200;28;20047;-94
2022/05/23 17:14:35;;;;;;;5.93;3.22;;;16.40;77.40;;;;;;5126943;28;20093;-95
2022/05/23 17:17:01;;;;;;;3.97;2.90;;;16.20;77.60;;;;;;5127393;28;20038;-95
2022/05/23 17:19:27;;;;;;;4.28;3.30;;;16.10;78.20;;;;;;5127836;28;20024;-95
2022/05/23 17:21:52;;;;;;;4.70;3.90;;;15.90;78.70;;;;;;5127079;28;20454;-95
2022/05/23 17:24:18;;;;;;;5.28;4.00;;;15.80;79.10;;;;;;5127150;28;20032;-95
2022/05/23 17:26:44;;;;;;;6.10;4.18;;;15.60;79.50;;;;;;5113736;28;20031;-94
2022/05/23 17:29:09;;;;;;;7.15;4.63;;;15.40;80.60;;;;;;5113368;28;20114;-94
2022/05/23 17:31:35;;;;;;;5.53;4.30;;;15.20;80.70;;;;;;5113195;28;20081;-94
2022/05/23 17:34:01;;;;;;;6.13;4.55;;;15.00;80.90;;;;;;5113290;28;20020;-95
2022/05/23 17:36:27;;;;;;;5.18;4.68;;;14.90;81.30;;;;;;5114167;28;20021;-94
2022/05/23 17:38:53;;;;;;;5.13;3.85;;;14.80;81.70;;;;;;5113530;28;20374;-94
2022/05/23 17:41:19;;;;;;;5.65;5.00;;;14.60;82.20;;;;;;5113220;28;20031;-94
2022/05/23 17:43:46;;;;;;;8.25;4.55;;;14.50;83.50;;;;;;5112891;28;20032;-94
2022/05/23 17:46:12;;;;;;;7.97;4.60;;;14.30;83.90;;;;;;5113209;28;20028;-94
2022/05/23 17:48:38;;;;;;;12.35;5.75;;;14.20;84.40;;;;;;5113076;28;20557;-94
2022/05/23 17:51:03;;;;;;;7.35;5.28;;;14.20;84.80;;;;;;5112901;28;20060;-95
2022/05/23 17:53:30;;;;;;;11.80;5.80;;;14.10;85.60;;;;;;5112835;28;20024;-95
2022/05/23 17:55:58;;;;;;;6.75;5.28;;;14.00;85.60;;;;;;5112911;28;20021;-95
2022/05/23 17:58:24;;;;;;;8.77;5.63;;;14.00;86.10;;;;;;5112775;28;20024;-95
2022/05/23 18:00:50;;;;;;;7.13;5.38;;;14.00;87.30;;;;;;5112557;28;20474;-95
2022/05/23 18:03:28;;;;;;;8.57;5.22;;;14.00;87.60;;;;;;5112831;28;20111;-96
2022/05/23 18:05:54;;;;;;;11.23;5.28;;;13.90;87.80;;;;;;5112666;28;20026;-95
2022/05/23 18:08:24;;;;;;;7.70;5.15;;;13.90;87.90;;;;;;5112655;28;20058;-95
2022/05/23 18:10:51;;;;;;;5.78;4.68;;;13.90;88.60;;;;;;5112578;28;20032;-94
2022/05/23 18:13:17;;;;;;;7.97;4.90;;;13.90;88.70;;;;;;5111993;28;20028;-94
2022/05/23 18:21:13;;;;;;;8.10;5.38;;;13.80;89.50;;;;;;5096800;28;20073;-94
2022/05/23 18:23:39;;;;;;;8.43;4.65;;;13.80;90.00;;;;;;5113039;28;20032;-94
2022/05/23 18:26:05;;;;;;;7.97;5.10;;;13.80;90.10;;;;;;5112268;28;20390;-96
2022/05/23 18:28:31;;;;;;;8.65;5.13;;;13.80;90.40;;;;;;5114831;28;20023;-96
2022/05/23 18:30:57;;;;;;;9.75;4.90;;;13.70;90.30;;;;;;5117021;28;20035;-96
2022/05/23 18:33:23;;;;;;;6.18;4.97;;;13.70;90.40;;;;;;5113261;28;20462;-96
2022/05/23 18:35:48;;;;;;;8.98;5.72;;;13.60;90.40;;;;;;5111955;28;20115;-96
2022/05/23 18:38:17;;;;;;;6.35;5.15;;;13.60;90.40;;;;;;5110908;28;20016;-95
2022/05/23 18:40:42;;;;;;;7.78;6.03;;;13.50;90.50;;;;;;5112685;28;20450;-94
2022/05/23 18:43:08;;;;;;;11.35;6.10;;;13.40;90.60;;;;;;5112039;28;20039;-95
2022/05/23 18:45:34;;;;;;;9.43;6.35;;;13.30;90.60;;;;;;5112604;28;20024;-94
2022/05/23 18:50:44;;;;;;;12.95;6.90;;;13.10;90.70;;;;;;5096712;28;20078;-94
2022/05/23 18:53:11;;;;;;;9.40;5.82;;;13.00;90.70;;;;;;5111531;28;20459;-92
2022/05/23 18:55:37;;;;;;;7.90;5.22;;;13.00;90.70;;;;;;5111811;28;20031;-92
2022/05/23 18:58:05;;;;;;;7.07;4.90;;;12.90;90.70;;;;;;5112120;28;20043;-92
2022/05/23 19:00:34;;;;;;;11.18;5.63;;;12.90;90.70;;;;;;5111467;28;20107;-91
2022/05/23 19:02:59;;;;;;;7.65;4.70;;;12.90;90.70;;;;;;5111178;28;20119;-93
2022/05/23 19:05:25;;;;;;;7.93;5.20;;;12.90;90.80;;;;;;5110894;28;20056;-94
2022/05/23 19:07:51;;;;;;;7.75;5.15;;;12.90;90.90;;;;;;5094045;28;20363;-92
2022/05/23 19:10:17;;;;;;;9.38;5.18;;;12.90;90.90;;;;;;5094086;28;20021;-93
2022/05/23 19:12:43;;;;;;;8.57;4.97;;;12.90;91.00;;;;;;5094147;28;20069;-93
2022/05/23 19:15:10;;;;;;;6.72;4.90;;;12.90;91.10;;;;;;5093741;28;20044;-94
2022/05/23 19:17:36;;;;;;;7.35;5.78;;;12.90;91.30;;;;;;5094062;28;20016;-93
2022/05/23 19:20:03;;;;;;;9.15;6.00;;;12.80;91.40;;;;;;5093858;28;20073;-94
2022/05/23 19:22:29;;;;;;;9.95;6.18;;;12.90;91.50;;;;;;5094159;28;20047;-95
2022/05/23 19:24:55;;;;;;;14.18;7.53;;;12.80;91.60;;;;;;5093681;28;20024;-93
2022/05/23 19:27:22;;;;;;;11.25;6.05;;;12.80;91.80;;;;;;5093825;28;20359;-93
2022/05/23 19:29:48;;;;;;;9.77;6.72;;;12.80;91.90;;;;;;5093977;28;20023;-93
2022/05/23 19:32:14;;;;;;;9.00;6.90;;;12.70;92.20;;;;;;5093501;28;20023;-93
2022/05/23 19:34:40;;;;;;;10.13;7.57;;;12.70;92.30;;;;;;5093702;28;20382;-93
2022/05/23 19:37:06;;;;;;;10.30;7.57;;;12.60;92.30;;;;;;5093492;28;20032;-93
2022/05/23 19:39:39;;;;;;;13.60;8.73;;;12.60;92.50;;;;;;5093383;28;20020;-92
2022/05/23 19:42:09;;;;;;;13.43;9.40;;;12.60;92.80;;;;;;5091023;28;20020;-93
2022/05/23 19:44:35;;;;;;;17.92;10.00;;;12.60;93.00;;;;;;5093916;28;20052;-88
2022/05/23 19:47:01;;;;;;;15.73;8.70;;;12.50;93.10;;;;;;5094034;28;20074;-92
2022/05/23 19:49:27;;;;;;;15.25;9.48;;;12.60;93.20;;;;;;5093506;28;20024;-93
2022/05/23 19:51:52;;;;;;;10.70;8.35;;;12.60;93.10;;;;;;5093650;28;20475;-93
2022/05/23 19:54:18;;;;;;;14.57;7.80;;;12.60;93.20;;;;;;5093303;28;20490;-93
2022/05/23 19:56:45;;;;;;;11.10;7.53;;;12.60;93.20;;;;;;5093489;28;20042;-93
2022/05/23 19:59:10;;;;;;;11.07;7.38;;;12.70;93.30;;;;;;5093424;28;20019;-93
2022/05/23 20:07:10;;;;;;;7.68;5.80;;;12.70;93.10;;;;;;5092828;28;20081;-92
2022/05/23 20:09:37;;;;;;;9.95;4.90;;;12.70;93.10;;;;;;5093324;28;20028;-94
2022/05/23 20:12:04;;;;;;;7.45;4.80;;;12.80;92.90;;;;;;5093165;28;20081;-94
2022/05/23 20:17:14;;;;;;;8.98;4.68;;;12.90;92.20;;;;;;5090266;28;20130;-93
2022/05/23 20:19:40;;;;;;;6.35;4.50;;;13.00;91.70;;;;;;5093194;28;20038;-89
2022/05/23 20:22:06;;;;;;;7.60;4.63;;;13.00;91.60;;;;;;5093483;28;20021;-92
2022/05/23 20:24:31;;;;;;;6.35;4.35;;;13.00;91.50;;;;;;5093275;28;20054;-93
2022/05/23 20:26:57;;;;;;;8.63;5.15;;;13.10;91.40;;;;;;5093375;28;20057;-92
2022/05/23 20:29:23;;;;;;;9.40;4.50;;;13.00;91.20;;;;;;5093139;28;20024;-93
2022/05/23 20:31:48;;;;;;;9.50;4.68;;;13.10;91.20;;;;;;5093291;28;20169;-93
2022/05/23 20:34:14;;;;;;;8.55;4.78;;;13.00;91.00;;;;;;5093091;28;20024;-93
2022/05/23 20:36:39;;;;;;;6.60;4.75;;;13.10;91.00;;;;;;5093407;28;20020;-94
2022/05/23 20:39:05;;;;;;;8.77;4.50;;;13.10;91.00;;;;;;5093129;28;20028;-93
2022/05/23 20:41:31;;;;;;;7.38;4.45;;;13.10;90.90;;;;;;5093043;28;20020;-92
2022/05/23 20:43:56;;;;;;;6.15;4.40;;;13.20;90.80;;;;;;5093140;28;20382;-93
2022/05/23 20:46:35;;;;;;;8.23;4.57;;;13.20;90.80;;;;;;5092966;28;20024;-93
2022/05/23 20:49:02;;;;;;;9.07;4.60;;;13.20;90.80;;;;;;5093219;28;20035;-93
2022/05/23 20:51:28;;;;;;;5.85;4.43;;;13.20;90.80;;;;;;5092935;28;20119;-94
2022/05/23 20:53:54;;;;;;;6.38;4.07;;;13.20;90.80;;;;;;5092913;28;20467;-94
2022/05/23 20:56:20;;;;;;;8.57;4.20;;;13.20;90.80;;;;;;5093096;28;20020;-94
2022/05/23 20:58:46;;;;;;;5.72;4.20;;;13.20;90.80;;;;;;5093174;28;20016;-94
2022/05/23 21:01:11;;;;;;;10.50;4.85;;;13.20;90.80;;;;;;5094946;28;20065;-95
2022/05/23 21:03:37;;;;;;;6.88;4.28;;;13.20;90.70;;;;;;5096689;28;20031;-95
2022/05/23 21:06:07;;;;;;;6.72;4.40;;;13.10;90.70;;;;;;5096804;28;20024;-94
2022/05/23 21:08:33;;;;;;;6.67;4.43;;;13.10;90.70;;;;;;5096630;28;20030;-94
2022/05/23 21:10:59;;;;;;;6.60;5.05;;;13.00;90.70;;;;;;5096629;28;20032;-94
2022/05/23 21:13:25;;;;;;;6.78;5.15;;;12.90;90.70;;;;;;5096383;28;20035;-96
2022/05/23 21:15:51;;;;;;;10.60;5.63;;;12.80;90.90;;;;;;5096452;28;20024;-94
2022/05/23 21:18:16;;;;;;;6.85;5.07;;;12.80;91.60;;;;;;5096491;28;20489;-95
2022/05/23 21:20:42;;;;;;;9.75;5.07;;;12.70;91.60;;;;;;5096453;28;20020;-94
2022/05/23 21:23:08;;;;;;;8.65;5.18;;;12.60;91.70;;;;;;5096512;28;20036;-94
2022/05/23 21:25:39;;;;;;;7.20;4.57;;;12.50;91.90;;;;;;5096253;28;20478;-94
2022/05/23 21:28:10;;;;;;;6.85;5.00;;;12.50;92.20;;;;;;5096580;28;20584;-94
2022/05/23 21:30:37;;;;;;;6.18;5.05;;;12.40;92.50;;;;;;5096507;28;20025;-94
2022/05/23 21:33:06;;;;;;;8.00;4.93;;;12.30;92.80;;;;;;5096527;28;20016;-94
2022/05/23 21:35:32;;;;;;;8.25;4.95;;;12.20;93.00;;;;;;5096091;28;20081;-95
2022/05/23 21:38:00;;;;;;;5.03;4.53;;;12.00;93.30;;;;;;5096280;28;20454;-95
2022/05/23 21:48:42;;;;;;;7.10;4.35;;;11.50;93.80;;;;;;5097393;28;20082;-94
2022/05/23 21:51:08;;;;;;;4.35;3.95;;;11.40;94.00;;;;;;5095878;28;20465;-93
2022/05/23 21:53:34;;;;;;;5.30;3.92;;;11.20;94.00;;;;;;5095817;28;20020;-94
2022/05/23 21:56:03;;;;;;;5.97;4.30;;;11.10;94.20;;;;;;5095865;28;20026;-94
2022/05/23 21:58:29;;;;;;;6.22;4.47;;;11.00;94.40;;;;;;5095778;28;20508;-93
2022/05/23 22:03:42;;;;;;;5.28;4.57;;;10.80;94.90;;;;;;5097316;28;20063;-94
2022/05/23 22:06:11;;;;;;;5.20;4.60;;;10.70;95.30;;;;;;5095727;28;20385;-94
2022/05/23 22:08:37;;;;;;;6.65;4.57;;;10.60;95.30;;;;;;5095537;28;20115;-94
2022/05/23 22:11:03;;;;;;;7.00;4.70;;;10.50;95.50;;;;;;5095513;28;20028;-94
2022/05/23 22:13:29;;;;;;;5.45;4.63;;;10.40;95.80;;;;;;5095200;28;20032;-93
2022/05/23 22:15:56;;;;;;;8.23;5.05;;;10.30;96.00;;;;;;5095547;28;20020;-93
2022/05/23 22:18:23;;;;;;;6.88;4.70;;;10.20;96.20;;;;;;5095330;28;20497;-93
2022/05/23 22:20:49;;;;;;;8.38;4.97;;;10.10;96.50;;;;;;5095301;28;20024;-94
2022/05/23 22:23:15;;;;;;;8.43;5.13;;;10.10;97.10;;;;;;5095233;28;20027;-94
2022/05/23 22:25:41;;;;;;;6.88;4.43;;;9.90;97.20;;;;;;5095119;28;20466;-94
2022/05/23 22:28:07;;;;;;;7.55;4.75;;;9.90;97.30;;;;;;5095225;28;20031;-95
2022/05/23 22:30:33;;;;;;;7.35;4.47;;;9.80;97.70;;;;;;5095340;28;20028;-93
2022/05/23 22:32:59;;;;;;;7.65;5.05;;;9.80;97.80;;;;;;5095613;28;20024;-94
2022/05/23 22:35:25;;;;;;;6.47;5.00;;;9.70;98.20;;;;;;5094944;28;20116;-94
2022/05/23 22:37:53;;;;;;;7.40;4.60;;;9.60;98.30;;;;;;5095017;28;20073;-94
2022/05/23 22:40:19;;;;;;;5.75;4.53;;;9.60;98.40;;;;;;5094971;28;20020;-94
2022/05/23 22:42:46;;;;;;;6.50;5.13;;;9.50;99.00;;;;;;5095227;28;20043;-94
2022/05/23 22:45:13;;;;;;;8.25;5.07;;;9.50;99.00;;;;;;5094924;28;20115;-94
2022/05/23 22:47:39;;;;;;;7.43;4.78;;;9.40;99.20;;;;;;5094686;28;20058;-94
2022/05/23 22:50:05;;;;;;;6.13;4.72;;;9.30;99.30;;;;;;5094851;28;20023;-94
2022/05/23 22:52:30;;;;;;;8.60;4.88;;;9.30;99.40;;;;;;5094392;28;20059;-94
2022/05/23 22:54:56;;;;;;;6.90;5.15;;;9.30;99.70;;;;;;5094547;28;20055;-94
2022/05/23 22:57:25;;;;;;;6.25;5.55;;;9.20;99.80;;;;;;5094769;28;20025;-94
2022/05/23 22:59:51;;;;;;;5.72;4.80;;;9.10;99.90;;;;;;5095606;28;20103;-94
2022/05/23 23:02:17;;;;;;;8.43;4.95;;;9.00;99.90;;;;;;5094632;28;20020;-94
2022/05/23 23:04:43;;;;;;;6.72;5.07;;;9.00;99.90;;;;;;5094510;28;20162;-94
2022/05/23 23:07:10;;;;;;;6.85;4.82;;;8.90;99.90;;;;;;5094797;28;20122;-94
2022/05/23 23:09:35;;;;;;;5.40;4.90;;;8.90;99.90;;;;;;5094271;28;20039;-94
2022/05/23 23:12:01;;;;;;;5.57;4.68;;;8.80;99.90;;;;;;5094319;28;20413;-94
2022/05/23 23:14:27;;;;;;;5.93;4.72;;;8.80;99.90;;;;;;5094542;28;20056;-94
2022/05/23 23:17:03;;;;;;;6.57;5.35;;;8.70;99.90;;;;;;5094223;28;20023;-94
2022/05/23 23:19:28;;;;;;;9.40;5.38;;;8.70;99.90;;;;;;5094097;28;20053;-94
2022/05/23 23:21:54;;;;;;;7.72;5.50;;;8.60;99.90;;;;;;5094262;28;20023;-93
2022/05/23 23:24:20;;;;;;;6.15;5.13;;;8.60;99.90;;;;;;5093569;28;20455;-94
2022/05/23 23:26:46;;;;;;;8.75;5.43;;;8.50;99.90;;;;;;5094297;28;20055;-93
2022/05/23 23:29:12;;;;;;;7.43;4.90;;;8.50;99.90;;;;;;5094110;28;20027;-94
2022/05/23 23:31:37;;;;;;;6.32;4.93;;;8.50;99.90;;;;;;5094165;28;20024;-93
2022/05/23 23:39:33;;;;;;;7.22;5.30;;;8.30;99.90;;;;;;5095487;28;20035;-94
2022/05/23 23:41:59;;;;;;;7.05;5.32;;;8.30;99.90;;;;;;5093899;28;20020;-94
2022/05/23 23:44:24;;;;;;;9.50;5.47;;;8.30;99.90;;;;;;5093786;28;20020;-93
2022/05/23 23:46:50;;;;;;;8.75;4.97;;;8.30;99.90;;;;;;5093682;28;20030;-94
2022/05/23 23:49:16;;;;;;;7.68;5.40;;;8.20;99.90;;;;;;5093758;28;20470;-94